KBWG/BWG METAR and TAF weather

Enter ICAO airport designator
Station Type Date Time Source
KBWG METAR 2020/08/14 17:06 UTC NOAA

KBWG 141706Z AUTO 00000KT 10SM SCT017 27/22 A2996 RMK AO2 T02720222


Station Type Date Time Source
KBWG Decoded METAR 2020/08/14 17:06 UTC NOAA

BOWLING GREEN-WARREN CO RGNL, KY, United States (KBWG) 36-58N 086-25W 161M
Aug 14, 2020 - 01:06 PM EDT / 2020.08.14 1706 UTC
Wind: Calm:0
Visibility: 10 mile(s):0
Sky conditions: partly cloudy
Temperature: 81.0 F (27.2 C)
Dew Point: 72.0 F (22.2 C)
Relative Humidity: 74%
Pressure (altimeter): 29.96 in. Hg (1014 hPa)
ob: KBWG 141706Z AUTO 00000KT 10SM SCT017 27/22 A2996 RMK AO2 T02720222
cycle: 17

Station Type Date Time Source
KBWG TAF 2020/08/14 13:27 UTC NOAA

TAF
AMD KBWG 141323Z 1413/1512 VRB04KT P6SM VCSH BKN007
FM141600 08005KT P6SM VCTS BKN035CB BKN250
FM150000 06004KT P6SM BKN050 BKN250

Example: see airport list